sensor_id;sensor_type;location;lat;lon;timestamp;pressure;altitude;pressure_sealevel;temperature;humidity
19827;BME280;10074;52.018;4.726;2022-12-08T00:04:52;46419.75;;;-144.79;100.00
19827;BME280;10074;52.018;4.726;2022-12-08T00:10:11;46413.75;;;-144.79;100.00
19827;BME280;10074;52.018;4.726;2022-12-08T00:15:12;46401.72;;;-144.79;100.00
19827;BME280;10074;52.018;4.726;2022-12-08T00:20:12;46407.72;;;-144.79;100.00
19827;BME280;10074;52.018;4.726;2022-12-08T00:25:13;46419.75;;;-144.79;100.00
19827;BME280;10074;52.018;4.726;2022-12-08T00:30:14;46413.75;;;-144.79;100.00
19827;BME280;10074;52.018;4.726;2022-12-08T00:35:14;46415.75;;;-144.79;100.00
19827;BME280;10074;52.018;4.726;2022-12-08T00:40:14;46415.75;;;-144.79;100.00
19827;BME280;10074;52.018;4.726;2022-12-08T00:45:15;46415.75;;;-144.79;100.00
19827;BME280;10074;52.018;4.726;2022-12-08T00:50:15;46409.75;;;-144.79;100.00
19827;BME280;10074;52.018;4.726;2022-12-08T00:55:16;46407.72;;;-144.79;100.00
19827;BME280;10074;52.018;4.726;2022-12-08T01:00:17;46411.75;;;-144.79;100.00
19827;BME280;10074;52.018;4.726;2022-12-08T01:05:17;46415.75;;;-144.79;100.00
19827;BME280;10074;52.018;4.726;2022-12-08T01:10:17;46417.75;;;-144.79;100.00
19827;BME280;10074;52.018;4.726;2022-12-08T01:15:18;46411.75;;;-144.79;100.00
19827;BME280;10074;52.018;4.726;2022-12-08T01:20:18;46409.75;;;-144.79;100.00
19827;BME280;10074;52.018;4.726;2022-12-08T01:25:19;46405.72;;;-144.79;100.00
19827;BME280;10074;52.018;4.726;2022-12-08T01:30:20;46397.72;;;-144.79;100.00
19827;BME280;10074;52.018;4.726;2022-12-08T01:35:22;46415.75;;;-144.79;100.00
19827;BME280;10074;52.018;4.726;2022-12-08T01:40:22;46415.75;;;-144.79;100.00
19827;BME280;10074;52.018;4.726;2022-12-08T01:45:28;46407.72;;;-144.79;100.00
19827;BME280;10074;52.018;4.726;2022-12-08T01:50:30;46411.75;;;-144.79;100.00
19827;BME280;10074;52.018;4.726;2022-12-08T01:55:35;46417.75;;;-144.79;100.00
19827;BME280;10074;52.018;4.726;2022-12-08T02:00:37;46399.72;;;-144.79;100.00
19827;BME280;10074;52.018;4.726;2022-12-08T02:05:38;46415.75;;;-144.79;100.00
19827;BME280;10074;52.018;4.726;2022-12-08T02:10:41;46417.75;;;-144.79;100.00
19827;BME280;10074;52.018;4.726;2022-12-08T02:16:01;46407.72;;;-144.79;100.00
19827;BME280;10074;52.018;4.726;2022-12-08T02:21:08;46399.72;;;-144.79;100.00
19827;BME280;10074;52.018;4.726;2022-12-08T02:26:18;46417.75;;;-144.79;100.00
19827;BME280;10074;52.018;4.726;2022-12-08T02:31:51;46397.72;;;-144.79;100.00
19827;BME280;10074;52.018;4.726;2022-12-08T02:37:08;46401.72;;;-144.79;100.00
19827;BME280;10074;52.018;4.726;2022-12-08T02:42:23;46403.72;;;-144.79;100.00
19827;BME280;10074;52.018;4.726;2022-12-08T02:47:27;46399.72;;;-144.79;100.00
19827;BME280;10074;52.018;4.726;2022-12-08T03:03:22;46415.75;;;-144.79;100.00
19827;BME280;10074;52.018;4.726;2022-12-08T03:08:50;46407.72;;;-144.79;100.00
19827;BME280;10074;52.018;4.726;2022-12-08T03:13:58;46405.72;;;-144.79;100.00
19827;BME280;10074;52.018;4.726;2022-12-08T03:19:17;46399.72;;;-144.79;100.00
19827;BME280;10074;52.018;4.726;2022-12-08T03:24:21;46399.72;;;-144.79;100.00
19827;BME280;10074;52.018;4.726;2022-12-08T03:29:22;46417.75;;;-144.79;100.00
19827;BME280;10074;52.018;4.726;2022-12-08T03:34:25;46417.75;;;-144.79;100.00
19827;BME280;10074;52.018;4.726;2022-12-08T03:39:27;46405.72;;;-144.79;100.00
19827;BME280;10074;52.018;4.726;2022-12-08T03:44:27;46405.72;;;-144.79;100.00
19827;BME280;10074;52.018;4.726;2022-12-08T03:49:28;46407.72;;;-144.79;100.00
19827;BME280;10074;52.018;4.726;2022-12-08T03:54:28;46405.72;;;-144.79;100.00
19827;BME280;10074;52.018;4.726;2022-12-08T03:59:28;46411.75;;;-144.79;100.00
19827;BME280;10074;52.018;4.726;2022-12-08T04:04:29;46387.69;;;-144.79;100.00
19827;BME280;10074;52.018;4.726;2022-12-08T04:09:30;46403.72;;;-144.79;100.00
19827;BME280;10074;52.018;4.726;2022-12-08T04:14:33;46397.72;;;-144.79;100.00
19827;BME280;10074;52.018;4.726;2022-12-08T04:19:33;46391.69;;;-144.79;100.00
19827;BME280;10074;52.018;4.726;2022-12-08T04:24:33;46401.72;;;-144.79;100.00
19827;BME280;10074;52.018;4.726;2022-12-08T04:29:34;46395.69;;;-144.79;100.00
19827;BME280;10074;52.018;4.726;2022-12-08T04:34:34;46387.69;;;-144.79;100.00
19827;BME280;10074;52.018;4.726;2022-12-08T04:39:35;46393.69;;;-144.79;100.00
19827;BME280;10074;52.018;4.726;2022-12-08T04:44:35;46383.66;;;-144.79;100.00
19827;BME280;10074;52.018;4.726;2022-12-08T04:49:35;46391.69;;;-144.79;100.00
19827;BME280;10074;52.018;4.726;2022-12-08T04:54:36;46375.66;;;-144.79;100.00
19827;BME280;10074;52.018;4.726;2022-12-08T04:59:36;46383.66;;;-144.79;100.00
19827;BME280;10074;52.018;4.726;2022-12-08T05:04:37;46385.69;;;-144.79;100.00
19827;BME280;10074;52.018;4.726;2022-12-08T05:09:38;46389.69;;;-144.79;100.00
19827;BME280;10074;52.018;4.726;2022-12-08T05:14:38;46391.69;;;-144.79;100.00
19827;BME280;10074;52.018;4.726;2022-12-08T05:19:38;46377.66;;;-144.79;100.00
19827;BME280;10074;52.018;4.726;2022-12-08T05:24:39;46383.66;;;-144.79;100.00
19827;BME280;10074;52.018;4.726;2022-12-08T05:29:39;46369.63;;;-144.79;100.00
19827;BME280;10074;52.018;4.726;2022-12-08T05:34:41;46357.59;;;-144.79;100.00
19827;BME280;10074;52.018;4.726;2022-12-08T05:39:41;46371.63;;;-144.79;100.00
19827;BME280;10074;52.018;4.726;2022-12-08T05:44:42;46363.63;;;-144.79;100.00
19827;BME280;10074;52.018;4.726;2022-12-08T05:49:42;46369.63;;;-144.79;100.00
19827;BME280;10074;52.018;4.726;2022-12-08T05:54:43;46375.66;;;-144.79;100.00
19827;BME280;10074;52.018;4.726;2022-12-08T05:59:43;46375.66;;;-144.79;100.00
19827;BME280;10074;52.018;4.726;2022-12-08T06:04:43;46351.59;;;-144.79;100.00
19827;BME280;10074;52.018;4.726;2022-12-08T06:09:44;46363.63;;;-144.79;100.00
19827;BME280;10074;52.018;4.726;2022-12-08T06:14:44;46377.66;;;-144.79;100.00
19827;BME280;10074;52.018;4.726;2022-12-08T06:19:44;46363.63;;;-144.79;100.00
19827;BME280;10074;52.018;4.726;2022-12-08T06:24:45;46377.66;;;-144.79;100.00
19827;BME280;10074;52.018;4.726;2022-12-08T06:29:45;46375.66;;;-144.79;100.00
19827;BME280;10074;52.018;4.726;2022-12-08T06:34:45;46365.63;;;-144.79;100.00
19827;BME280;10074;52.018;4.726;2022-12-08T06:39:46;46359.59;;;-144.79;100.00
19827;BME280;10074;52.018;4.726;2022-12-08T06:44:46;46361.63;;;-144.79;100.00
19827;BME280;10074;52.018;4.726;2022-12-08T06:49:47;46369.63;;;-144.79;100.00
19827;BME280;10074;52.018;4.726;2022-12-08T06:54:47;46363.63;;;-144.79;100.00
19827;BME280;10074;52.018;4.726;2022-12-08T06:59:47;46365.63;;;-144.79;100.00
19827;BME280;10074;52.018;4.726;2022-12-08T07:04:48;46343.56;;;-144.79;100.00
19827;BME280;10074;52.018;4.726;2022-12-08T07:09:48;46355.59;;;-144.79;100.00
19827;BME280;10074;52.018;4.726;2022-12-08T07:14:48;46351.59;;;-144.79;100.00
19827;BME280;10074;52.018;4.726;2022-12-08T07:19:49;46347.56;;;-144.79;100.00
19827;BME280;10074;52.018;4.726;2022-12-08T07:24:49;46341.56;;;-144.79;100.00
19827;BME280;10074;52.018;4.726;2022-12-08T07:29:49;46331.53;;;-144.79;100.00
19827;BME280;10074;52.018;4.726;2022-12-08T07:34:50;46335.53;;;-144.79;100.00
19827;BME280;10074;52.018;4.726;2022-12-08T07:39:50;46331.53;;;-144.79;100.00
19827;BME280;10074;52.018;4.726;2022-12-08T07:44:50;46333.53;;;-144.79;100.00
19827;BME280;10074;52.018;4.726;2022-12-08T07:49:51;46339.56;;;-144.79;100.00
19827;BME280;10074;52.018;4.726;2022-12-08T07:54:51;46339.56;;;-144.79;100.00
19827;BME280;10074;52.018;4.726;2022-12-08T07:59:51;46327.53;;;-144.79;100.00
19827;BME280;10074;52.018;4.726;2022-12-08T08:04:52;46329.53;;;-144.79;100.00
19827;BME280;10074;52.018;4.726;2022-12-08T08:09:52;46329.53;;;-144.79;100.00
19827;BME280;10074;52.018;4.726;2022-12-08T08:14:52;46323.53;;;-144.79;100.00
19827;BME280;10074;52.018;4.726;2022-12-08T08:19:53;46323.53;;;-144.79;100.00
19827;BME280;10074;52.018;4.726;2022-12-08T08:24:53;46375.66;;;-144.79;100.00
19827;BME280;10074;52.018;4.726;2022-12-08T08:29:54;46371.63;;;-144.79;100.00
19827;BME280;10074;52.018;4.726;2022-12-08T08:34:54;46351.59;;;-144.79;100.00
19827;BME280;10074;52.018;4.726;2022-12-08T08:39:54;46363.63;;;-144.79;100.00
19827;BME280;10074;52.018;4.726;2022-12-08T08:44:55;46359.59;;;-144.79;100.00
19827;BME280;10074;52.018;4.726;2022-12-08T08:49:56;46363.63;;;-144.79;100.00
19827;BME280;10074;52.018;4.726;2022-12-08T08:54:56;46385.69;;;-144.79;100.00
19827;BME280;10074;52.018;4.726;2022-12-08T08:59:56;46373.66;;;-144.79;100.00
19827;BME280;10074;52.018;4.726;2022-12-08T09:04:56;46367.63;;;-144.79;100.00
19827;BME280;10074;52.018;4.726;2022-12-08T09:09:57;46369.63;;;-144.79;100.00
19827;BME280;10074;52.018;4.726;2022-12-08T09:14:57;46375.66;;;-144.79;100.00
19827;BME280;10074;52.018;4.726;2022-12-08T09:19:58;46373.66;;;-144.79;100.00
19827;BME280;10074;52.018;4.726;2022-12-08T09:25:00;46377.66;;;-144.79;100.00
19827;BME280;10074;52.018;4.726;2022-12-08T09:30:00;46375.66;;;-144.79;100.00
19827;BME280;10074;52.018;4.726;2022-12-08T09:35:01;46419.75;;;-144.79;100.00
19827;BME280;10074;52.018;4.726;2022-12-08T09:40:01;46463.88;;;-144.79;100.00
19827;BME280;10074;52.018;4.726;2022-12-08T09:45:10;46465.88;;;-144.79;100.00
19827;BME280;10074;52.018;4.726;2022-12-08T09:50:29;46467.88;;;-144.79;100.00
19827;BME280;10074;52.018;4.726;2022-12-08T10:00:41;46467.88;;;-144.79;100.00
19827;BME280;10074;52.018;4.726;2022-12-08T10:05:46;46469.88;;;-144.79;100.00
19827;BME280;10074;52.018;4.726;2022-12-08T10:11:07;46467.88;;;-144.79;100.00
19827;BME280;10074;52.018;4.726;2022-12-08T10:16:23;46471.91;;;-144.79;100.00
19827;BME280;10074;52.018;4.726;2022-12-08T10:21:29;46467.88;;;-144.79;100.00
19827;BME280;10074;52.018;4.726;2022-12-08T10:26:30;46469.88;;;-144.79;100.00
19827;BME280;10074;52.018;4.726;2022-12-08T10:31:31;46463.88;;;-144.79;100.00
19827;BME280;10074;52.018;4.726;2022-12-08T10:36:45;46463.88;;;-144.79;100.00
19827;BME280;10074;52.018;4.726;2022-12-08T10:41:50;46467.88;;;-144.79;100.00
19827;BME280;10074;52.018;4.726;2022-12-08T10:46:50;46467.88;;;-144.79;100.00
19827;BME280;10074;52.018;4.726;2022-12-08T10:51:50;46467.88;;;-144.79;100.00
19827;BME280;10074;52.018;4.726;2022-12-08T10:56:55;46465.88;;;-144.79;100.00
19827;BME280;10074;52.018;4.726;2022-12-08T11:01:56;46459.88;;;-144.79;100.00
19827;BME280;10074;52.018;4.726;2022-12-08T11:06:56;46463.88;;;-144.79;100.00
19827;BME280;10074;52.018;4.726;2022-12-08T11:17:11;46457.88;;;-144.79;100.00
19827;BME280;10074;52.018;4.726;2022-12-08T11:22:21;46457.88;;;-144.79;100.00
19827;BME280;10074;52.018;4.726;2022-12-08T11:27:21;46455.84;;;-144.79;100.00
19827;BME280;10074;52.018;4.726;2022-12-08T11:32:21;46457.88;;;-144.79;100.00
19827;BME280;10074;52.018;4.726;2022-12-08T11:37:25;46453.84;;;-144.79;100.00
19827;BME280;10074;52.018;4.726;2022-12-08T11:42:33;46457.88;;;-144.79;100.00
19827;BME280;10074;52.018;4.726;2022-12-08T11:47:45;46441.81;;;-144.79;100.00
19827;BME280;10074;52.018;4.726;2022-12-08T11:52:50;46441.81;;;-144.79;100.00
19827;BME280;10074;52.018;4.726;2022-12-08T11:57:53;46439.81;;;-144.79;100.00
19827;BME280;10074;52.018;4.726;2022-12-08T12:03:01;46429.78;;;-144.79;100.00
19827;BME280;10074;52.018;4.726;2022-12-08T12:19:02;46433.81;;;-144.79;100.00
19827;BME280;10074;52.018;4.726;2022-12-08T12:24:19;46431.78;;;-144.79;100.00
19827;BME280;10074;52.018;4.726;2022-12-08T12:29:24;46423.78;;;-144.79;100.00
19827;BME280;10074;52.018;4.726;2022-12-08T12:34:26;46413.75;;;-144.79;100.00
19827;BME280;10074;52.018;4.726;2022-12-08T12:39:30;46419.75;;;-144.79;100.00
19827;BME280;10074;52.018;4.726;2022-12-08T12:54:41;46415.75;;;-144.79;100.00
19827;BME280;10074;52.018;4.726;2022-12-08T13:04:52;46371.63;;;-144.79;100.00
19827;BME280;10074;52.018;4.726;2022-12-08T13:09:59;46367.63;;;-144.79;100.00
19827;BME280;10074;52.018;4.726;2022-12-08T13:15:05;46363.63;;;-144.79;100.00
19827;BME280;10074;52.018;4.726;2022-12-08T13:20:19;46359.59;;;-144.79;100.00
19827;BME280;10074;52.018;4.726;2022-12-08T13:30:51;46391.69;;;-144.79;100.00
19827;BME280;10074;52.018;4.726;2022-12-08T13:41:12;46367.63;;;-144.79;100.00
19827;BME280;10074;52.018;4.726;2022-12-08T13:46:26;46399.72;;;-144.79;100.00
19827;BME280;10074;52.018;4.726;2022-12-08T13:51:39;46387.69;;;-144.79;100.00
19827;BME280;10074;52.018;4.726;2022-12-08T13:56:42;46401.72;;;-144.79;100.00
19827;BME280;10074;52.018;4.726;2022-12-08T14:01:44;46391.69;;;-144.79;100.00
19827;BME280;10074;52.018;4.726;2022-12-08T14:06:47;46371.63;;;-144.79;100.00
19827;BME280;10074;52.018;4.726;2022-12-08T14:11:57;46369.63;;;-144.79;100.00
19827;BME280;10074;52.018;4.726;2022-12-08T14:17:06;46375.66;;;-144.79;100.00
19827;BME280;10074;52.018;4.726;2022-12-08T14:22:12;46389.69;;;-144.79;100.00
19827;BME280;10074;52.018;4.726;2022-12-08T14:27:17;46399.72;;;-144.79;100.00
19827;BME280;10074;52.018;4.726;2022-12-08T14:37:27;46395.69;;;-144.79;100.00
19827;BME280;10074;52.018;4.726;2022-12-08T14:42:28;46387.69;;;-144.79;100.00
19827;BME280;10074;52.018;4.726;2022-12-08T14:47:30;46403.72;;;-144.79;100.00
19827;BME280;10074;52.018;4.726;2022-12-08T14:52:31;46399.72;;;-144.79;100.00
19827;BME280;10074;52.018;4.726;2022-12-08T14:57:33;46407.72;;;-144.79;100.00
19827;BME280;10074;52.018;4.726;2022-12-08T15:02:40;46411.75;;;-144.79;100.00
19827;BME280;10074;52.018;4.726;2022-12-08T15:07:49;46393.69;;;-144.79;100.00
19827;BME280;10074;52.018;4.726;2022-12-08T15:18:37;46387.69;;;-144.79;100.00
19827;BME280;10074;52.018;4.726;2022-12-08T15:23:44;46377.66;;;-144.79;100.00
19827;BME280;10074;52.018;4.726;2022-12-08T15:28:45;46395.69;;;-144.79;100.00
19827;BME280;10074;52.018;4.726;2022-12-08T15:33:45;46389.69;;;-144.79;100.00
19827;BME280;10074;52.018;4.726;2022-12-08T15:38:45;46387.69;;;-144.79;100.00
19827;BME280;10074;52.018;4.726;2022-12-08T15:43:46;46383.66;;;-144.79;100.00
19827;BME280;10074;52.018;4.726;2022-12-08T15:48:46;46389.69;;;-144.79;100.00
19827;BME280;10074;52.018;4.726;2022-12-08T15:53:46;46403.72;;;-144.79;100.00
19827;BME280;10074;52.018;4.726;2022-12-08T15:58:47;46385.69;;;-144.79;100.00
19827;BME280;10074;52.018;4.726;2022-12-08T16:03:47;46403.72;;;-144.79;100.00
19827;BME280;10074;52.018;4.726;2022-12-08T16:08:47;46393.69;;;-144.79;100.00
19827;BME280;10074;52.018;4.726;2022-12-08T16:13:48;46391.69;;;-144.79;100.00
19827;BME280;10074;52.018;4.726;2022-12-08T16:18:51;46409.75;;;-144.79;100.00
19827;BME280;10074;52.018;4.726;2022-12-08T16:23:51;46403.72;;;-144.79;100.00
19827;BME280;10074;52.018;4.726;2022-12-08T16:28:51;46421.78;;;-144.79;100.00
19827;BME280;10074;52.018;4.726;2022-12-08T16:33:51;46423.78;;;-144.79;100.00
19827;BME280;10074;52.018;4.726;2022-12-08T16:38:52;46429.78;;;-144.79;100.00
19827;BME280;10074;52.018;4.726;2022-12-08T16:43:52;46423.78;;;-144.79;100.00
19827;BME280;10074;52.018;4.726;2022-12-08T16:48:53;46425.78;;;-144.79;100.00
19827;BME280;10074;52.018;4.726;2022-12-08T16:53:54;46413.75;;;-144.79;100.00
19827;BME280;10074;52.018;4.726;2022-12-08T16:58:55;46411.75;;;-144.79;100.00
19827;BME280;10074;52.018;4.726;2022-12-08T17:03:57;46415.75;;;-144.79;100.00
19827;BME280;10074;52.018;4.726;2022-12-08T17:08:58;46407.72;;;-144.79;100.00
19827;BME280;10074;52.018;4.726;2022-12-08T17:13:59;46419.75;;;-144.79;100.00
19827;BME280;10074;52.018;4.726;2022-12-08T17:18:59;46415.75;;;-144.79;100.00
19827;BME280;10074;52.018;4.726;2022-12-08T17:24:00;46421.78;;;-144.79;100.00
19827;BME280;10074;52.018;4.726;2022-12-08T17:29:01;46415.75;;;-144.79;100.00
19827;BME280;10074;52.018;4.726;2022-12-08T17:34:04;46417.75;;;-144.79;100.00
19827;BME280;10074;52.018;4.726;2022-12-08T17:39:07;46385.69;;;-144.79;100.00
19827;BME280;10074;52.018;4.726;2022-12-08T17:44:13;46399.72;;;-144.79;100.00
19827;BME280;10074;52.018;4.726;2022-12-08T17:49:19;46389.69;;;-144.79;100.00
19827;BME280;10074;52.018;4.726;2022-12-08T17:54:20;46381.66;;;-144.79;100.00
19827;BME280;10074;52.018;4.726;2022-12-08T17:59:21;46379.66;;;-144.79;100.00
19827;BME280;10074;52.018;4.726;2022-12-08T18:04:21;46387.69;;;-144.79;100.00
19827;BME280;10074;52.018;4.726;2022-12-08T18:09:23;46377.66;;;-144.79;100.00
19827;BME280;10074;52.018;4.726;2022-12-08T18:14:23;46355.59;;;-144.79;100.00
19827;BME280;10074;52.018;4.726;2022-12-08T18:19:24;46365.63;;;-144.79;100.00
19827;BME280;10074;52.018;4.726;2022-12-08T18:24:25;46361.63;;;-144.79;100.00
19827;BME280;10074;52.018;4.726;2022-12-08T18:29:25;46351.59;;;-144.79;100.00
19827;BME280;10074;52.018;4.726;2022-12-08T18:34:26;46351.59;;;-144.79;100.00
19827;BME280;10074;52.018;4.726;2022-12-08T18:39:29;46387.69;;;-144.79;100.00
19827;BME280;10074;52.018;4.726;2022-12-08T18:44:30;46355.59;;;-144.79;100.00
19827;BME280;10074;52.018;4.726;2022-12-08T18:49:30;46353.59;;;-144.79;100.00
19827;BME280;10074;52.018;4.726;2022-12-08T18:54:30;46363.63;;;-144.79;100.00
19827;BME280;10074;52.018;4.726;2022-12-08T18:59:31;46363.63;;;-144.79;100.00
19827;BME280;10074;52.018;4.726;2022-12-08T19:04:31;46355.59;;;-144.79;100.00
19827;BME280;10074;52.018;4.726;2022-12-08T19:09:32;46351.59;;;-144.79;100.00
19827;BME280;10074;52.018;4.726;2022-12-08T19:14:33;46351.59;;;-144.79;100.00
19827;BME280;10074;52.018;4.726;2022-12-08T19:19:33;46347.56;;;-144.79;100.00
19827;BME280;10074;52.018;4.726;2022-12-08T19:24:34;46351.59;;;-144.79;100.00
19827;BME280;10074;52.018;4.726;2022-12-08T19:29:35;46347.56;;;-144.79;100.00
19827;BME280;10074;52.018;4.726;2022-12-08T19:34:36;46341.56;;;-144.79;100.00
19827;BME280;10074;52.018;4.726;2022-12-08T19:39:36;46365.63;;;-144.79;100.00
19827;BME280;10074;52.018;4.726;2022-12-08T19:44:58;46343.56;;;-144.79;100.00
19827;BME280;10074;52.018;4.726;2022-12-08T19:49:59;46351.59;;;-144.79;100.00
19827;BME280;10074;52.018;4.726;2022-12-08T19:55:18;46349.59;;;-144.79;100.00
19827;BME280;10074;52.018;4.726;2022-12-08T20:00:19;46357.59;;;-144.79;100.00
19827;BME280;10074;52.018;4.726;2022-12-08T20:05:20;46347.56;;;-144.79;100.00
19827;BME280;10074;52.018;4.726;2022-12-08T20:10:29;46361.63;;;-144.79;100.00
19827;BME280;10074;52.018;4.726;2022-12-08T20:15:31;46355.59;;;-144.79;100.00
19827;BME280;10074;52.018;4.726;2022-12-08T20:20:31;46359.59;;;-144.79;100.00
19827;BME280;10074;52.018;4.726;2022-12-08T20:25:31;46339.56;;;-144.79;100.00
19827;BME280;10074;52.018;4.726;2022-12-08T20:30:33;46329.53;;;-144.79;100.00
19827;BME280;10074;52.018;4.726;2022-12-08T20:35:34;46335.53;;;-144.79;100.00
19827;BME280;10074;52.018;4.726;2022-12-08T20:40:34;46339.56;;;-144.79;100.00
19827;BME280;10074;52.018;4.726;2022-12-08T20:45:35;46331.53;;;-144.79;100.00
19827;BME280;10074;52.018;4.726;2022-12-08T20:50:35;46331.53;;;-144.79;100.00
19827;BME280;10074;52.018;4.726;2022-12-08T20:55:39;46323.53;;;-144.79;100.00
19827;BME280;10074;52.018;4.726;2022-12-08T21:00:40;46335.53;;;-144.79;100.00
19827;BME280;10074;52.018;4.726;2022-12-08T21:05:49;46335.53;;;-144.79;100.00
19827;BME280;10074;52.018;4.726;2022-12-08T21:10:56;46341.56;;;-144.79;100.00
19827;BME280;10074;52.018;4.726;2022-12-08T21:15:56;46339.56;;;-144.79;100.00
19827;BME280;10074;52.018;4.726;2022-12-08T21:21:03;46329.53;;;-144.79;100.00
19827;BME280;10074;52.018;4.726;2022-12-08T21:26:13;46335.53;;;-144.79;100.00
19827;BME280;10074;52.018;4.726;2022-12-08T21:31:17;46335.53;;;-144.79;100.00
19827;BME280;10074;52.018;4.726;2022-12-08T21:36:18;46335.53;;;-144.79;100.00
19827;BME280;10074;52.018;4.726;2022-12-08T21:41:21;46335.53;;;-144.79;100.00
19827;BME280;10074;52.018;4.726;2022-12-08T21:46:41;46331.53;;;-144.79;100.00
19827;BME280;10074;52.018;4.726;2022-12-08T21:51:41;46327.53;;;-144.79;100.00
19827;BME280;10074;52.018;4.726;2022-12-08T21:56:45;46327.53;;;-144.79;100.00
19827;BME280;10074;52.018;4.726;2022-12-08T22:01:46;46323.53;;;-144.79;100.00
19827;BME280;10074;52.018;4.726;2022-12-08T22:06:47;46325.53;;;-144.79;100.00
19827;BME280;10074;52.018;4.726;2022-12-08T22:11:47;46329.53;;;-144.79;100.00
19827;BME280;10074;52.018;4.726;2022-12-08T22:16:48;46325.53;;;-144.79;100.00
19827;BME280;10074;52.018;4.726;2022-12-08T22:21:49;46347.56;;;-144.79;100.00
19827;BME280;10074;52.018;4.726;2022-12-08T22:26:49;46323.53;;;-144.79;100.00
19827;BME280;10074;52.018;4.726;2022-12-08T22:31:49;46327.53;;;-144.79;100.00
19827;BME280;10074;52.018;4.726;2022-12-08T22:36:50;46323.53;;;-144.79;100.00
19827;BME280;10074;52.018;4.726;2022-12-08T22:41:50;46345.56;;;-144.79;100.00
19827;BME280;10074;52.018;4.726;2022-12-08T22:46:51;46305.47;;;-144.79;100.00
19827;BME280;10074;52.018;4.726;2022-12-08T22:51:51;46335.53;;;-144.79;100.00
19827;BME280;10074;52.018;4.726;2022-12-08T22:56:52;46305.47;;;-144.79;100.00
19827;BME280;10074;52.018;4.726;2022-12-08T23:01:52;46345.56;;;-144.79;100.00
19827;BME280;10074;52.018;4.726;2022-12-08T23:06:53;46307.47;;;-144.79;100.00
19827;BME280;10074;52.018;4.726;2022-12-08T23:11:53;46305.47;;;-144.79;100.00
19827;BME280;10074;52.018;4.726;2022-12-08T23:16:54;46349.59;;;-144.79;100.00
19827;BME280;10074;52.018;4.726;2022-12-08T23:21:54;46327.53;;;-144.79;100.00
19827;BME280;10074;52.018;4.726;2022-12-08T23:26:54;46305.47;;;-144.79;100.00
19827;BME280;10074;52.018;4.726;2022-12-08T23:31:55;46305.47;;;-144.79;100.00
19827;BME280;10074;52.018;4.726;2022-12-08T23:36:55;46335.53;;;-144.79;100.00
19827;BME280;10074;52.018;4.726;2022-12-08T23:41:55;46349.59;;;-144.79;100.00
19827;BME280;10074;52.018;4.726;2022-12-08T23:46:56;46347.56;;;-144.79;100.00
19827;BME280;10074;52.018;4.726;2022-12-08T23:51:56;46349.59;;;-144.79;100.00
19827;BME280;10074;52.018;4.726;2022-12-08T23:56:57;46331.53;;;-144.79;100.00
